Time;durP1;ratioP1;P1;durP2;ratioP2;P2;SDS_P1;SDS_P2;PMS_P1;PMS_P2;Temp;Humidity;BMP_temperature;BMP_pressure;BME280_temperature;BME280_humidity;BME280_pressure;Samples;Min_cycle;Max_cycle;Signal;HPM_P1;HPM_P2
2023/12/05 00:02:00;;;;;;;16.93;11.80;;;4.00;99.90;;;;;;5096829;28;20369;-77
2023/12/05 00:04:37;;;;;;;15.87;11.80;;;4.10;99.90;;;;;;5076685;28;20024;-77
2023/12/05 00:07:03;;;;;;;17.37;11.20;;;4.10;99.90;;;;;;5076776;28;20035;-77
2023/12/05 00:09:29;;;;;;;16.07;11.17;;;4.10;99.90;;;;;;5075963;28;20451;-77
2023/12/05 00:11:55;;;;;;;12.83;9.87;;;4.10;99.90;;;;;;5076149;28;20071;-77
2023/12/05 00:14:23;;;;;;;16.70;11.40;;;4.10;99.90;;;;;;5082773;28;20468;-77
2023/12/05 00:16:49;;;;;;;17.27;10.63;;;4.10;99.90;;;;;;5096586;28;20422;-77
2023/12/05 00:19:15;;;;;;;13.60;9.23;;;4.10;99.90;;;;;;5064088;28;20128;-78
2023/12/05 00:21:40;;;;;;;14.43;10.03;;;4.00;99.90;;;;;;5054822;28;20032;-77
2023/12/05 00:24:06;;;;;;;15.13;10.33;;;4.00;99.90;;;;;;5056371;28;20037;-77
2023/12/05 00:26:32;;;;;;;16.63;10.07;;;4.10;99.90;;;;;;5055009;28;20037;-78
2023/12/05 00:28:58;;;;;;;14.97;11.33;;;4.10;99.90;;;;;;5055728;28;20048;-77
2023/12/05 00:31:24;;;;;;;16.73;11.03;;;4.10;99.90;;;;;;5054585;28;20492;-78
2023/12/05 00:33:50;;;;;;;19.27;10.63;;;4.10;99.90;;;;;;5054558;28;20044;-78
2023/12/05 00:36:16;;;;;;;15.03;11.23;;;4.10;99.90;;;;;;5055964;28;20025;-77
2023/12/05 00:38:43;;;;;;;15.50;10.43;;;4.10;99.90;;;;;;5055849;28;20036;-77
2023/12/05 00:41:09;;;;;;;13.03;9.97;;;4.10;99.90;;;;;;5055760;28;20477;-77
2023/12/05 00:43:36;;;;;;;14.67;10.10;;;4.10;99.90;;;;;;5055904;28;20036;-78
2023/12/05 00:46:02;;;;;;;15.60;9.80;;;4.10;99.90;;;;;;5055768;28;20499;-77
2023/12/05 00:48:28;;;;;;;14.07;9.93;;;4.10;99.90;;;;;;5055485;28;20041;-78
2023/12/05 00:50:54;;;;;;;14.50;9.67;;;4.10;99.90;;;;;;5056316;28;20063;-77
2023/12/05 00:53:20;;;;;;;15.03;9.27;;;4.10;99.90;;;;;;5070694;28;20036;-78
2023/12/05 00:55:45;;;;;;;14.97;9.87;;;4.10;99.90;;;;;;5054315;28;20047;-78
2023/12/05 00:58:11;;;;;;;13.63;9.73;;;4.10;99.90;;;;;;5055178;28;20021;-77
2023/12/05 01:00:37;;;;;;;13.57;9.10;;;4.10;99.90;;;;;;5055466;28;20482;-78
2023/12/05 01:03:03;;;;;;;11.97;8.67;;;4.10;99.90;;;;;;5055273;28;20052;-77
2023/12/05 01:05:29;;;;;;;11.43;8.23;;;4.10;99.90;;;;;;5055008;28;20037;-77
2023/12/05 01:07:54;;;;;;;12.07;8.23;;;4.10;99.90;;;;;;5054796;28;20060;-78
2023/12/05 01:10:20;;;;;;;10.90;7.90;;;4.10;99.90;;;;;;5055534;28;20037;-77
2023/12/05 01:12:46;;;;;;;12.90;7.67;;;4.10;99.90;;;;;;5054561;28;20029;-77
2023/12/05 01:15:12;;;;;;;13.37;9.30;;;4.10;99.90;;;;;;5055596;28;20420;-77
2023/12/05 01:17:38;;;;;;;13.07;9.50;;;4.20;99.90;;;;;;5055703;28;20029;-77
2023/12/05 01:20:11;;;;;;;12.00;9.00;;;4.10;99.90;;;;;;5055819;28;20029;-77
2023/12/05 01:22:38;;;;;;;12.48;8.82;;;4.20;99.90;;;;;;5064550;28;20101;-78
2023/12/05 01:25:07;;;;;;;10.83;8.00;;;4.20;99.90;;;;;;5056695;28;20025;-78
2023/12/05 01:27:33;;;;;;;11.87;8.63;;;4.20;99.90;;;;;;5055361;28;20033;-78
2023/12/05 01:29:59;;;;;;;11.90;8.10;;;4.20;99.90;;;;;;5054957;28;20473;-78
2023/12/05 01:32:25;;;;;;;9.23;7.03;;;4.20;99.90;;;;;;5055460;28;20039;-78
2023/12/05 01:34:51;;;;;;;10.80;7.93;;;4.20;99.90;;;;;;5055229;28;20040;-77
2023/12/05 01:37:17;;;;;;;11.33;7.77;;;4.20;99.90;;;;;;5055132;28;20044;-77
2023/12/05 01:39:43;;;;;;;11.03;7.73;;;4.20;99.90;;;;;;5054559;28;20037;-77
2023/12/05 01:42:09;;;;;;;10.73;7.80;;;4.20;99.90;;;;;;5054530;28;20040;-77
2023/12/05 01:44:35;;;;;;;10.90;7.53;;;4.20;99.90;;;;;;5053274;28;20040;-78
2023/12/05 01:47:03;;;;;;;10.57;7.63;;;4.20;99.90;;;;;;5053676;28;20048;-77
2023/12/05 01:49:32;;;;;;;12.87;7.77;;;4.20;99.90;;;;;;5053074;28;20041;-77
2023/12/05 01:51:58;;;;;;;12.23;8.10;;;4.20;99.90;;;;;;5070097;28;20362;-77
2023/12/05 01:54:24;;;;;;;10.37;7.73;;;4.20;99.90;;;;;;5054543;28;20037;-78
2023/12/05 01:56:50;;;;;;;11.17;7.73;;;4.20;99.90;;;;;;5054340;28;20423;-78
2023/12/05 01:59:16;;;;;;;12.70;8.27;;;4.20;99.90;;;;;;5051624;28;20126;-77
2023/12/05 02:01:43;;;;;;;9.87;7.07;;;4.20;99.90;;;;;;5051706;28;20032;-77
2023/12/05 02:04:08;;;;;;;11.23;8.37;;;4.20;99.90;;;;;;5052228;28;20039;-77
2023/12/05 02:06:34;;;;;;;10.90;7.70;;;4.20;99.90;;;;;;5053761;28;20037;-78
2023/12/05 02:09:01;;;;;;;9.70;7.03;;;4.20;99.90;;;;;;5054011;28;20099;-78
2023/12/05 02:11:27;;;;;;;9.57;6.60;;;4.20;99.90;;;;;;5084213;28;20051;-77
2023/12/05 02:13:53;;;;;;;9.87;6.93;;;4.20;99.90;;;;;;5093968;28;20056;-78
2023/12/05 02:16:34;;;;;;;11.47;8.00;;;4.20;99.90;;;;;;5075806;28;20476;-78
2023/12/05 02:19:23;;;;;;;11.53;8.43;;;4.20;99.90;;;;;;5094338;28;20034;-77
2023/12/05 02:21:53;;;;;;;12.23;7.83;;;4.20;99.90;;;;;;5075781;28;20260;-78
2023/12/05 02:24:34;;;;;;;11.40;7.67;;;4.20;99.90;;;;;;5094217;28;20063;-78
2023/12/05 02:27:30;;;;;;;12.17;7.83;;;4.20;99.90;;;;;;5076051;28;20120;-78
2023/12/05 02:29:56;;;;;;;12.43;8.27;;;4.20;99.90;;;;;;5093719;28;20075;-77
2023/12/05 02:32:22;;;;;;;9.70;6.63;;;4.20;99.90;;;;;;5094083;28;20087;-78
2023/12/05 02:34:48;;;;;;;9.87;7.47;;;4.20;99.90;;;;;;5093711;28;20028;-77
2023/12/05 02:37:29;;;;;;;11.07;7.40;;;4.20;99.90;;;;;;5093367;28;20065;-78
2023/12/05 02:40:10;;;;;;;10.43;7.43;;;4.20;99.90;;;;;;5093525;28;20036;-78
2023/12/05 02:42:38;;;;;;;9.83;7.17;;;4.20;99.90;;;;;;5076139;28;20028;-78
2023/12/05 02:45:09;;;;;;;10.73;7.10;;;4.20;99.90;;;;;;5093731;28;20479;-78
2023/12/05 02:47:37;;;;;;;7.87;5.83;;;4.20;99.90;;;;;;5093892;28;20492;-78
2023/12/05 02:50:04;;;;;;;9.20;6.80;;;4.20;99.90;;;;;;5093629;28;20040;-78
2023/12/05 02:52:29;;;;;;;9.43;6.47;;;4.20;99.90;;;;;;5094059;28;20039;-78
2023/12/05 02:54:55;;;;;;;8.40;6.37;;;4.20;99.90;;;;;;5094092;28;20028;-78
2023/12/05 02:57:21;;;;;;;8.57;5.80;;;4.20;99.90;;;;;;5094219;28;20035;-78
2023/12/05 02:59:47;;;;;;;8.93;6.60;;;4.20;99.90;;;;;;5094255;28;20047;-79
2023/12/05 03:02:13;;;;;;;11.00;7.17;;;4.20;99.90;;;;;;5093798;28;20028;-77
2023/12/05 03:04:39;;;;;;;8.23;6.17;;;4.20;99.90;;;;;;5094085;28;20455;-77
2023/12/05 03:07:05;;;;;;;9.63;6.90;;;4.20;99.90;;;;;;5094072;28;20051;-78
2023/12/05 03:09:31;;;;;;;10.80;7.00;;;4.20;99.90;;;;;;5093997;28;20040;-78
2023/12/05 03:11:57;;;;;;;13.50;8.23;;;4.20;99.90;;;;;;5075507;28;20075;-78
2023/12/05 03:14:26;;;;;;;9.53;7.23;;;4.20;99.90;;;;;;5093579;28;20164;-78
2023/12/05 03:16:52;;;;;;;10.40;7.27;;;4.20;99.90;;;;;;5099099;28;20059;-78
2023/12/05 03:19:30;;;;;;;9.30;7.10;;;4.20;99.90;;;;;;5102613;28;20032;-78
2023/12/05 03:22:05;;;;;;;11.40;7.63;;;4.20;99.90;;;;;;5074674;28;20036;-78
2023/12/05 03:24:31;;;;;;;10.10;7.27;;;4.20;99.90;;;;;;5093638;28;20043;-78
2023/12/05 03:26:57;;;;;;;13.23;7.77;;;4.20;99.90;;;;;;5093424;28;20032;-77
2023/12/05 03:29:23;;;;;;;10.57;6.93;;;4.20;99.90;;;;;;5093008;28;20044;-78
2023/12/05 03:31:49;;;;;;;8.83;6.73;;;4.20;99.90;;;;;;5093179;28;20496;-77
2023/12/05 03:34:15;;;;;;;10.27;7.50;;;4.20;99.90;;;;;;5093127;28;20115;-78
2023/12/05 03:36:41;;;;;;;9.60;6.97;;;4.20;99.90;;;;;;5075160;28;20028;-78
2023/12/05 03:39:06;;;;;;;13.20;8.37;;;4.20;99.90;;;;;;5092289;28;20032;-77
2023/12/05 03:41:32;;;;;;;12.53;7.20;;;4.20;99.90;;;;;;5074649;28;20036;-78
2023/12/05 03:43:58;;;;;;;9.30;7.10;;;4.20;99.90;;;;;;5092933;28;20036;-78
2023/12/05 03:46:24;;;;;;;11.47;7.57;;;4.20;99.90;;;;;;5093135;28;20036;-78
2023/12/05 03:48:49;;;;;;;9.07;6.87;;;4.20;99.90;;;;;;5092837;28;20032;-78
2023/12/05 03:51:15;;;;;;;11.07;7.60;;;4.20;99.90;;;;;;5092798;28;20062;-78
2023/12/05 03:53:41;;;;;;;11.20;7.63;;;4.20;99.90;;;;;;5092788;28;20028;-78
2023/12/05 03:56:07;;;;;;;12.50;7.83;;;4.30;99.90;;;;;;5092789;28;20105;-78
2023/12/05 03:58:33;;;;;;;10.70;7.40;;;4.30;99.90;;;;;;5092766;28;20111;-78
2023/12/05 04:00:58;;;;;;;10.50;7.50;;;4.20;99.90;;;;;;5092609;28;20115;-78
2023/12/05 04:03:24;;;;;;;10.70;7.57;;;4.30;99.90;;;;;;5092676;28;20032;-78
2023/12/05 04:05:50;;;;;;;11.17;7.77;;;4.30;99.90;;;;;;5074514;28;20039;-77
2023/12/05 04:08:16;;;;;;;16.27;9.17;;;4.30;99.90;;;;;;5092922;28;20036;-78
2023/12/05 04:10:41;;;;;;;12.10;8.10;;;4.30;99.90;;;;;;5074446;28;20048;-77
2023/12/05 04:13:07;;;;;;;13.10;8.20;;;4.30;99.90;;;;;;5092372;28;20536;-78
2023/12/05 04:15:33;;;;;;;10.23;7.20;;;4.30;99.90;;;;;;5092593;28;20131;-78
2023/12/05 04:17:59;;;;;;;10.07;6.60;;;4.30;99.90;;;;;;5092630;28;20077;-79
2023/12/05 04:20:25;;;;;;;10.00;6.93;;;4.30;99.90;;;;;;5092569;28;20132;-78
2023/12/05 04:22:51;;;;;;;8.63;6.13;;;4.20;99.90;;;;;;5092480;28;20090;-77
2023/12/05 04:25:16;;;;;;;6.53;5.30;;;4.30;99.90;;;;;;5092105;28;20032;-78
2023/12/05 04:27:42;;;;;;;8.70;5.20;;;4.30;99.90;;;;;;5092476;28;20024;-78
2023/12/05 04:30:09;;;;;;;7.40;5.77;;;4.20;99.90;;;;;;5093433;28;20048;-78
2023/12/05 04:32:34;;;;;;;7.20;5.13;;;4.20;99.90;;;;;;5096808;28;20028;-78
2023/12/05 04:35:00;;;;;;;8.50;5.30;;;4.20;99.90;;;;;;5096981;28;20028;-77
2023/12/05 04:37:26;;;;;;;6.37;4.80;;;4.20;99.90;;;;;;5096832;28;20503;-78
2023/12/05 04:39:52;;;;;;;7.63;5.47;;;4.20;99.90;;;;;;5096695;28;20419;-78
2023/12/05 04:49:01;;;;;;;6.53;4.73;;;4.20;99.90;;;;;;5034364;28;20041;-78
2023/12/05 04:51:51;;;;;;;6.33;4.80;;;4.30;99.90;;;;;;5093938;28;20043;-77
2023/12/05 04:55:26;;;;;;;6.30;4.47;;;4.30;99.90;;;;;;5033879;28;20405;-78
2023/12/05 04:58:47;;;;;;;5.70;4.70;;;4.30;99.90;;;;;;4975033;28;20039;-78
2023/12/05 05:01:16;;;;;;;6.73;4.60;;;4.30;99.90;;;;;;4974691;28;20046;-77
2023/12/05 05:04:08;;;;;;;4.93;3.97;;;4.30;99.90;;;;;;4974900;28;20043;-78
2023/12/05 05:07:05;;;;;;;5.67;4.87;;;4.30;99.90;;;;;;5080781;28;20032;-78
2023/12/05 05:09:34;;;;;;;5.33;4.30;;;4.30;99.90;;;;;;5088124;28;20090;-77
2023/12/05 05:12:01;;;;;;;7.27;4.70;;;4.30;99.90;;;;;;5098242;28;20032;-77
2023/12/05 05:14:27;;;;;;;7.03;4.50;;;4.30;99.90;;;;;;5114101;28;20055;-78
2023/12/05 05:16:52;;;;;;;5.63;4.33;;;4.30;99.90;;;;;;5095717;28;20028;-78
2023/12/05 05:19:18;;;;;;;6.83;5.10;;;4.30;99.90;;;;;;5095413;28;20064;-78
2023/12/05 05:21:44;;;;;;;6.00;4.37;;;4.30;99.90;;;;;;5076954;28;20034;-78
2023/12/05 05:24:10;;;;;;;7.87;4.47;;;4.30;99.90;;;;;;5095392;28;20150;-78
2023/12/05 05:26:35;;;;;;;9.33;4.90;;;4.30;99.90;;;;;;5095518;28;20028;-77
2023/12/05 05:29:01;;;;;;;7.87;5.03;;;4.30;99.90;;;;;;5095179;28;20120;-77
2023/12/05 05:31:27;;;;;;;7.97;5.40;;;4.30;99.90;;;;;;5090227;28;20032;-77
2023/12/05 05:33:53;;;;;;;8.40;4.50;;;4.30;99.90;;;;;;5054718;28;20151;-77
2023/12/05 05:36:18;;;;;;;5.87;4.30;;;4.30;99.90;;;;;;5054790;28;20031;-78
2023/12/05 05:38:44;;;;;;;6.53;4.93;;;4.40;99.90;;;;;;5054769;28;20108;-77
2023/12/05 05:41:10;;;;;;;6.60;4.80;;;4.40;99.90;;;;;;5054181;28;20033;-77
2023/12/05 05:43:36;;;;;;;7.17;5.30;;;4.40;99.90;;;;;;5054697;28;20074;-77
2023/12/05 05:46:02;;;;;;;8.57;5.57;;;4.40;99.90;;;;;;5052000;28;20036;-77
2023/12/05 05:48:28;;;;;;;6.97;5.47;;;4.40;99.90;;;;;;5054683;28;20037;-77
2023/12/05 05:50:53;;;;;;;9.03;5.57;;;4.40;99.90;;;;;;5053353;28;20044;-77
2023/12/05 05:53:19;;;;;;;8.10;6.00;;;4.40;99.90;;;;;;5054561;28;20029;-78
2023/12/05 05:55:45;;;;;;;8.80;6.10;;;4.40;99.90;;;;;;5054269;28;20044;-78
2023/12/05 05:58:11;;;;;;;6.87;5.30;;;4.40;99.90;;;;;;5054274;28;20033;-77
2023/12/05 06:00:37;;;;;;;7.53;5.60;;;4.40;99.90;;;;;;5054295;28;20037;-78
2023/12/05 06:03:03;;;;;;;11.23;6.70;;;4.40;99.90;;;;;;5054239;28;20037;-77
2023/12/05 06:05:29;;;;;;;8.50;7.20;;;4.40;99.90;;;;;;5054405;28;20385;-77
2023/12/05 06:07:55;;;;;;;8.53;6.87;;;4.40;99.90;;;;;;5050916;28;20037;-77
2023/12/05 06:10:21;;;;;;;10.73;6.90;;;4.40;99.90;;;;;;5054469;28;20044;-77
2023/12/05 06:12:47;;;;;;;7.07;6.30;;;4.40;99.90;;;;;;5055002;28;20060;-78
2023/12/05 06:15:13;;;;;;;9.10;6.93;;;4.40;99.90;;;;;;5054236;28;20493;-78
2023/12/05 06:17:39;;;;;;;11.00;7.90;;;4.40;99.90;;;;;;5054319;28;20120;-78
2023/12/05 06:20:26;;;;;;;10.87;9.00;;;4.40;99.90;;;;;;5054081;28;20033;-78
2023/12/05 06:22:58;;;;;;;9.50;8.50;;;4.40;99.90;;;;;;5054141;28;20041;-78
2023/12/05 06:25:23;;;;;;;9.05;7.13;;;4.40;99.90;;;;;;5054869;28;20040;-78
2023/12/05 06:27:50;;;;;;;8.53;6.20;;;4.40;99.90;;;;;;5054246;28;20029;-78
2023/12/05 06:30:19;;;;;;;7.30;5.67;;;4.40;99.90;;;;;;5054108;28;20041;-78
2023/12/05 06:32:47;;;;;;;6.07;4.90;;;4.50;99.90;;;;;;5054399;28;20397;-78
2023/12/05 06:35:13;;;;;;;7.50;5.10;;;4.50;99.90;;;;;;5054347;28;20049;-78
2023/12/05 06:37:42;;;;;;;7.40;5.60;;;4.50;99.90;;;;;;5054054;28;20033;-77
2023/12/05 06:40:09;;;;;;;8.70;5.97;;;4.50;99.90;;;;;;5053806;28;20041;-77
2023/12/05 06:42:40;;;;;;;11.43;6.10;;;4.50;99.90;;;;;;5053437;28;20041;-77
2023/12/05 06:45:15;;;;;;;8.77;6.20;;;4.50;99.90;;;;;;5053633;28;20026;-78
2023/12/05 06:47:44;;;;;;;7.70;6.13;;;4.50;99.90;;;;;;5035758;28;20182;-77
2023/12/05 06:50:15;;;;;;;8.90;6.80;;;4.50;99.90;;;;;;5053674;28;20396;-77
2023/12/05 06:52:41;;;;;;;8.83;6.50;;;4.50;99.90;;;;;;5052840;28;20028;-77
2023/12/05 06:55:10;;;;;;;12.67;7.30;;;4.50;99.90;;;;;;5053128;28;20037;-77
2023/12/05 06:57:36;;;;;;;11.20;8.63;;;4.50;99.90;;;;;;5053175;28;20443;-77
2023/12/05 07:00:03;;;;;;;10.93;8.13;;;4.50;99.90;;;;;;5053465;28;20033;-77
2023/12/05 07:02:29;;;;;;;9.73;6.30;;;4.50;99.90;;;;;;5059704;28;20038;-77
2023/12/05 07:04:57;;;;;;;8.37;6.33;;;4.50;99.90;;;;;;5070811;28;20377;-77
2023/12/05 07:07:24;;;;;;;8.93;6.10;;;4.50;99.90;;;;;;5072673;28;20044;-77
2023/12/05 07:09:51;;;;;;;18.73;12.43;;;4.50;99.90;;;;;;5092648;28;20462;-77
2023/12/05 07:12:17;;;;;;;11.13;8.47;;;4.60;99.90;;;;;;5092785;28;20040;-77
2023/12/05 07:14:46;;;;;;;12.30;7.77;;;4.50;99.90;;;;;;5090213;28;20100;-78
2023/12/05 07:17:12;;;;;;;9.97;6.60;;;4.60;99.90;;;;;;5093519;28;20070;-77
2023/12/05 07:19:37;;;;;;;10.10;5.93;;;4.60;99.90;;;;;;5093413;28;20090;-77
2023/12/05 07:22:03;;;;;;;8.80;5.87;;;4.60;99.90;;;;;;5093188;28;20028;-78
2023/12/05 07:24:29;;;;;;;7.63;5.97;;;4.60;99.90;;;;;;5075536;28;20064;-78
2023/12/05 07:26:55;;;;;;;6.50;4.80;;;4.60;99.90;;;;;;5088687;28;20111;-77
2023/12/05 07:29:21;;;;;;;7.17;4.93;;;4.60;99.90;;;;;;5072891;28;20036;-77
2023/12/05 07:31:47;;;;;;;6.30;4.70;;;4.60;99.90;;;;;;5054754;28;20045;-77
2023/12/05 07:34:12;;;;;;;8.30;5.57;;;4.60;99.90;;;;;;5073195;28;20021;-77
2023/12/05 07:36:41;;;;;;;9.23;5.90;;;4.60;99.90;;;;;;5072399;28;20082;-78
2023/12/05 07:39:09;;;;;;;9.40;5.50;;;4.60;99.90;;;;;;5072798;28;20511;-77
2023/12/05 07:41:36;;;;;;;8.13;5.37;;;4.70;99.90;;;;;;5072578;28;20040;-77
2023/12/05 07:44:01;;;;;;;8.73;6.07;;;4.70;99.90;;;;;;5072670;28;20488;-78
2023/12/05 07:46:28;;;;;;;8.63;4.90;;;4.70;99.90;;;;;;5071480;28;20128;-76
2023/12/05 07:48:54;;;;;;;8.60;5.33;;;4.70;99.90;;;;;;5072220;28;20045;-77
2023/12/05 07:51:20;;;;;;;7.27;4.93;;;4.70;99.90;;;;;;5072317;28;20086;-76
2023/12/05 07:53:50;;;;;;;8.10;5.10;;;4.70;99.90;;;;;;5069506;28;20039;-77
2023/12/05 07:56:16;;;;;;;6.60;4.80;;;4.80;99.90;;;;;;5088688;28;20036;-76
2023/12/05 07:58:43;;;;;;;9.40;6.23;;;4.80;99.90;;;;;;5092826;28;20039;-76
2023/12/05 08:01:28;;;;;;;10.43;8.60;;;4.80;99.90;;;;;;5074905;28;20493;-76
2023/12/05 08:03:57;;;;;;;18.90;17.00;;;4.80;99.90;;;;;;5090441;28;20032;-76
2023/12/05 08:06:30;;;;;;;11.90;9.10;;;4.80;99.90;;;;;;5097068;28;20036;-77
2023/12/05 08:08:59;;;;;;;11.03;6.47;;;4.90;99.90;;;;;;5097018;28;20437;-77
2023/12/05 08:11:25;;;;;;;8.93;5.10;;;4.90;99.90;;;;;;5097144;28;20031;-77
2023/12/05 08:13:51;;;;;;;8.20;5.90;;;4.90;99.90;;;;;;5095875;28;20048;-77
2023/12/05 08:16:22;;;;;;;9.57;6.43;;;4.90;99.90;;;;;;5096159;28;20028;-77
2023/12/05 08:18:57;;;;;;;11.30;6.80;;;4.90;99.90;;;;;;5096386;28;20107;-77
2023/12/05 08:21:23;;;;;;;11.30;6.40;;;4.90;99.90;;;;;;5096491;28;20035;-77
2023/12/05 08:23:48;;;;;;;9.93;5.80;;;5.00;99.90;;;;;;5096309;28;20043;-76
2023/12/05 08:26:17;;;;;;;9.87;6.73;;;5.00;99.90;;;;;;5096832;28;20036;-77
2023/12/05 08:28:43;;;;;;;10.77;6.47;;;5.00;99.90;;;;;;5096798;28;20060;-77
2023/12/05 08:31:09;;;;;;;11.67;6.77;;;5.00;99.90;;;;;;5096525;28;20024;-77
2023/12/05 08:33:35;;;;;;;15.00;8.90;;;5.00;99.90;;;;;;5094974;28;20057;-77
2023/12/05 08:36:01;;;;;;;11.97;7.67;;;5.00;99.90;;;;;;5094886;28;20032;-77
2023/12/05 08:38:27;;;;;;;10.30;7.07;;;5.00;99.90;;;;;;5094822;28;20050;-78
2023/12/05 08:40:53;;;;;;;8.83;6.37;;;5.00;99.90;;;;;;5094506;28;20496;-77
2023/12/05 08:43:18;;;;;;;8.13;5.43;;;5.00;99.90;;;;;;5094519;28;20155;-77
2023/12/05 08:45:44;;;;;;;8.17;6.07;;;5.10;99.90;;;;;;5094444;28;20044;-77
2023/12/05 08:48:10;;;;;;;9.30;5.30;;;5.10;99.90;;;;;;5096395;28;20032;-77
2023/12/05 08:50:36;;;;;;;10.63;5.40;;;5.10;99.90;;;;;;5095881;28;20040;-77
2023/12/05 08:53:02;;;;;;;10.23;5.80;;;5.10;99.90;;;;;;5096115;28;20050;-77
2023/12/05 08:55:28;;;;;;;10.47;6.30;;;5.10;99.90;;;;;;5096120;28;20035;-77
2023/12/05 08:57:55;;;;;;;12.90;7.13;;;5.20;99.90;;;;;;5095820;28;20028;-77
2023/12/05 09:00:21;;;;;;;11.57;6.00;;;5.20;99.90;;;;;;5095876;28;20106;-77
2023/12/05 09:02:47;;;;;;;8.13;5.17;;;5.20;99.90;;;;;;5077381;28;20068;-76
2023/12/05 09:05:12;;;;;;;12.90;6.47;;;5.20;99.90;;;;;;5077766;28;20042;-77
2023/12/05 09:07:39;;;;;;;14.67;8.07;;;5.20;99.90;;;;;;5096341;28;20062;-77
2023/12/05 09:10:05;;;;;;;15.53;7.70;;;5.20;99.90;;;;;;5077668;28;20412;-77
2023/12/05 09:12:32;;;;;;;14.13;7.90;;;5.20;99.90;;;;;;5095648;28;20085;-77
2023/12/05 09:14:58;;;;;;;11.23;6.60;;;5.30;99.90;;;;;;5076992;28;20080;-78
2023/12/05 09:17:24;;;;;;;11.43;5.63;;;5.30;99.90;;;;;;5094643;28;20086;-76
2023/12/05 09:19:53;;;;;;;9.27;5.57;;;5.30;99.90;;;;;;5095360;28;20063;-77
2023/12/05 09:22:19;;;;;;;8.70;5.30;;;5.30;99.90;;;;;;5095203;28;20103;-77
2023/12/05 09:24:44;;;;;;;8.07;4.77;;;5.30;99.90;;;;;;5094983;28;20111;-77
2023/12/05 09:27:10;;;;;;;8.20;5.10;;;5.40;99.90;;;;;;5095846;28;20089;-77
2023/12/05 09:29:36;;;;;;;9.27;4.63;;;5.40;99.90;;;;;;5096022;28;20139;-77
2023/12/05 09:32:02;;;;;;;8.93;4.60;;;5.40;99.90;;;;;;5096076;28;20028;-77
2023/12/05 09:34:28;;;;;;;9.23;4.43;;;5.50;99.90;;;;;;5095813;28;20056;-77
2023/12/05 09:36:55;;;;;;;6.10;3.80;;;5.50;99.90;;;;;;5095935;28;20028;-77
2023/12/05 09:39:21;;;;;;;7.83;4.30;;;5.60;99.90;;;;;;5095726;28;20369;-77
2023/12/05 09:42:03;;;;;;;;;;;;;;;;;;;;;
2023/12/05 09:44:35;;;;;;;6.30;3.70;;;5.60;99.90;;;;;;5095553;28;20039;-77
2023/12/05 09:47:06;;;;;;;7.43;3.30;;;5.60;99.90;;;;;;5077574;28;20036;-77
2023/12/05 09:49:48;;;;;;;4.37;2.80;;;5.60;99.90;;;;;;5095958;28;20325;-77
2023/12/05 09:52:19;;;;;;;5.60;3.50;;;5.60;99.90;;;;;;5095393;28;20080;-77
2023/12/05 09:54:52;;;;;;;7.73;3.80;;;5.70;99.90;;;;;;5094680;28;20036;-77
2023/12/05 09:57:18;;;;;;;4.60;3.47;;;5.70;99.90;;;;;;5095367;28;20290;-77
2023/12/05 09:59:51;;;;;;;7.50;4.43;;;5.70;99.90;;;;;;5095195;28;20032;-77
2023/12/05 10:02:20;;;;;;;5.90;4.03;;;5.70;99.90;;;;;;5094391;28;20086;-78
2023/12/05 10:04:55;;;;;;;6.03;3.77;;;5.70;99.90;;;;;;5094722;28;20032;-77
2023/12/05 10:07:21;;;;;;;7.63;4.23;;;5.70;99.90;;;;;;5094465;28;20101;-77
2023/12/05 10:09:50;;;;;;;5.07;3.93;;;5.70;99.90;;;;;;5074499;28;20046;-77
2023/12/05 10:12:16;;;;;;;6.23;4.23;;;5.70;99.90;;;;;;5091898;28;20613;-77
2023/12/05 10:14:43;;;;;;;7.03;4.67;;;5.70;99.90;;;;;;5091754;28;20127;-77
2023/12/05 10:17:09;;;;;;;7.27;5.30;;;5.80;99.90;;;;;;5075658;28;20283;-77
2023/12/05 10:19:35;;;;;;;7.53;6.07;;;5.80;99.90;;;;;;5094021;28;20146;-77
2023/12/05 10:22:02;;;;;;;11.30;6.90;;;5.80;99.90;;;;;;5093703;28;20036;-77
2023/12/05 10:24:46;;;;;;;9.30;6.63;;;5.80;99.90;;;;;;5093584;28;20138;-77
2023/12/05 10:27:12;;;;;;;9.53;7.00;;;5.80;99.90;;;;;;5093760;28;20454;-76
2023/12/05 10:29:42;;;;;;;9.87;6.70;;;5.80;99.90;;;;;;5093045;28;20084;-78
2023/12/05 10:32:10;;;;;;;10.43;6.17;;;5.80;99.90;;;;;;5093546;28;20044;-76
2023/12/05 10:34:52;;;;;;;8.90;5.73;;;5.80;99.90;;;;;;5075916;28;20089;-77
2023/12/05 10:37:26;;;;;;;8.20;5.67;;;5.80;99.90;;;;;;5094029;28;20377;-78
2023/12/05 10:39:53;;;;;;;8.83;6.03;;;5.80;99.90;;;;;;5082858;28;20392;-76
2023/12/05 10:42:20;;;;;;;10.13;5.80;;;5.90;99.90;;;;;;5057116;28;20036;-77
2023/12/05 10:44:47;;;;;;;9.90;6.40;;;5.90;99.90;;;;;;5092851;28;20025;-77
2023/12/05 10:47:18;;;;;;;9.40;6.47;;;5.90;99.90;;;;;;5093254;28;20062;-77
2023/12/05 10:49:48;;;;;;;12.15;6.07;;;5.90;99.90;;;;;;5093386;28;20472;-77
2023/12/05 10:52:14;;;;;;;11.50;5.90;;;5.90;99.90;;;;;;5074948;28;20044;-77
2023/12/05 10:54:41;;;;;;;9.43;6.70;;;5.90;99.90;;;;;;5093199;28;20032;-76
2023/12/05 10:57:11;;;;;;;9.90;6.57;;;5.90;99.90;;;;;;5093249;28;20047;-76
2023/12/05 10:59:40;;;;;;;9.53;5.87;;;5.90;99.90;;;;;;5095206;28;20158;-78
2023/12/05 11:02:14;;;;;;;9.73;6.10;;;5.90;99.90;;;;;;5071978;28;20037;-77
2023/12/05 11:04:46;;;;;;;9.53;6.47;;;5.90;99.90;;;;;;5074193;28;20399;-77
2023/12/05 11:07:12;;;;;;;10.95;6.32;;;5.90;99.90;;;;;;5074593;28;20400;-78
2023/12/05 11:09:42;;;;;;;10.47;6.50;;;5.90;99.90;;;;;;5073248;28;20051;-77
2023/12/05 11:12:08;;;;;;;10.13;6.13;;;5.90;99.90;;;;;;5072919;28;20531;-77
2023/12/05 11:14:40;;;;;;;12.70;7.03;;;6.00;99.90;;;;;;5072917;28;20053;-77
2023/12/05 11:17:12;;;;;;;9.50;6.20;;;5.90;99.90;;;;;;5054953;28;20044;-78
2023/12/05 11:20:13;;;;;;;7.82;5.50;;;6.00;99.90;;;;;;5073188;28;20090;-77
2023/12/05 11:23:21;;;;;;;7.50;5.40;;;6.00;99.90;;;;;;5073320;28;20098;-77
2023/12/05 11:26:02;;;;;;;11.33;5.73;;;6.00;99.90;;;;;;5057734;28;20495;-78
2023/12/05 11:28:50;;;;;;;7.70;4.60;;;6.00;99.90;;;;;;5070781;28;20124;-79
2023/12/05 11:31:36;;;;;;;7.27;4.83;;;6.00;99.90;;;;;;5070714;28;20145;-78
2023/12/05 11:34:21;;;;;;;9.00;5.10;;;6.10;99.90;;;;;;5072658;28;20037;-77
2023/12/05 11:37:02;;;;;;;7.90;4.63;;;6.10;99.90;;;;;;5073367;28;20036;-78
2023/12/05 11:39:29;;;;;;;11.73;5.63;;;6.10;99.90;;;;;;5072522;28;20037;-77
2023/12/05 11:42:14;;;;;;;11.07;5.03;;;6.10;99.90;;;;;;5072281;28;20071;-77
2023/12/05 11:44:41;;;;;;;8.17;5.20;;;6.10;99.90;;;;;;5072414;28;20147;-78
2023/12/05 11:47:21;;;;;;;8.63;5.10;;;6.10;99.90;;;;;;5072819;28;20111;-78
2023/12/05 11:49:56;;;;;;;9.00;4.60;;;6.10;99.90;;;;;;5054513;28;20048;-77
2023/12/05 11:52:26;;;;;;;9.03;4.57;;;6.20;99.90;;;;;;5071779;28;20481;-78
2023/12/05 11:54:55;;;;;;;7.90;5.03;;;6.20;99.90;;;;;;5054004;28;20064;-76
2023/12/05 11:57:23;;;;;;;7.47;5.13;;;6.20;99.90;;;;;;5072129;28;20103;-78
2023/12/05 11:59:51;;;;;;;7.73;4.97;;;6.20;99.90;;;;;;5054140;28;20520;-78
2023/12/05 12:02:23;;;;;;;7.10;5.40;;;6.20;99.90;;;;;;5070764;28;20052;-77
2023/12/05 12:05:05;;;;;;;9.80;4.72;;;6.20;99.90;;;;;;5072602;28;20029;-77
2023/12/05 12:07:31;;;;;;;8.03;4.47;;;6.20;99.90;;;;;;5072308;28;20515;-77
2023/12/05 12:09:57;;;;;;;9.33;5.27;;;6.20;99.90;;;;;;5073000;28;20598;-77
2023/12/05 12:12:24;;;;;;;11.00;5.57;;;6.20;99.90;;;;;;5072575;28;20065;-77
2023/12/05 12:14:49;;;;;;;12.57;5.00;;;6.30;99.90;;;;;;5072153;28;20542;-77
2023/12/05 12:17:16;;;;;;;9.10;5.20;;;6.30;99.90;;;;;;5072397;28;20043;-77
2023/12/05 12:19:42;;;;;;;9.67;5.10;;;6.30;99.90;;;;;;5072120;28;20469;-78
2023/12/05 12:22:09;;;;;;;8.27;4.77;;;6.30;99.90;;;;;;5072139;28;20516;-76
2023/12/05 12:24:41;;;;;;;8.87;4.77;;;6.30;99.90;;;;;;5072262;28;20028;-77
2023/12/05 12:27:07;;;;;;;11.13;4.82;;;6.40;99.90;;;;;;5072322;28;20036;-78
2023/12/05 12:29:35;;;;;;;9.17;5.13;;;6.40;99.90;;;;;;5072004;28;20043;-77
2023/12/05 12:32:18;;;;;;;12.37;5.50;;;6.40;99.90;;;;;;5072721;28;20032;-77
2023/12/05 12:34:45;;;;;;;8.07;5.67;;;6.40;99.90;;;;;;5073014;28;20037;-78
2023/12/05 12:37:12;;;;;;;9.77;5.17;;;6.40;99.90;;;;;;5072499;28;20040;-77
2023/12/05 12:39:39;;;;;;;10.23;4.83;;;6.50;99.90;;;;;;5072489;28;20047;-77
2023/12/05 12:42:06;;;;;;;9.37;5.40;;;6.50;99.90;;;;;;5072623;28;20128;-75
2023/12/05 12:44:32;;;;;;;8.33;5.20;;;6.50;99.90;;;;;;5072259;28;20112;-77
2023/12/05 12:46:58;;;;;;;14.17;5.77;;;6.60;99.90;;;;;;5072573;28;20039;-77
2023/12/05 12:49:26;;;;;;;9.67;6.30;;;6.60;99.90;;;;;;5072391;28;20076;-78
2023/12/05 12:51:54;;;;;;;10.80;6.90;;;6.60;99.90;;;;;;5073786;28;20388;-78
2023/12/05 12:54:20;;;;;;;13.23;6.53;;;6.70;99.90;;;;;;5057847;28;20137;-78
2023/12/05 12:56:46;;;;;;;13.10;6.47;;;6.70;99.90;;;;;;5073913;28;20374;-77
2023/12/05 12:59:12;;;;;;;9.80;6.50;;;6.80;99.90;;;;;;5054983;28;20090;-78
2023/12/05 13:01:39;;;;;;;9.17;6.00;;;6.80;99.90;;;;;;5072841;28;20036;-77
2023/12/05 13:04:09;;;;;;;8.60;6.03;;;6.80;99.90;;;;;;5074978;28;20398;-77
2023/12/05 13:06:47;;;;;;;9.23;6.13;;;6.90;99.90;;;;;;5075602;28;20103;-77
2023/12/05 13:09:19;;;;;;;9.23;5.80;;;6.90;99.90;;;;;;5075690;28;20056;-78